Time;durP1;ratioP1;P1;durP2;ratioP2;P2;SDS_P1;SDS_P2;PMS_P1;PMS_P2;Temp;Humidity;BMP_temperature;BMP_pressure;BME280_temperature;BME280_humidity;BME280_pressure;Samples;Min_cycle;Max_cycle;Signal;HPM_P1;HPM_P2
2022/09/01 00:02:07;;;;;;;4.10;3.90;;;15.20;99.90;;;;;;5044186;28;20208;-49
2022/09/01 00:04:37;;;;;;;4.37;4.00;;;15.10;99.90;;;;;;5033492;28;20610;-49
2022/09/01 00:07:06;;;;;;;4.70;4.50;;;15.10;99.90;;;;;;5052139;28;20228;-49
2022/09/01 00:09:33;;;;;;;4.33;4.13;;;15.20;99.90;;;;;;5044087;28;20209;-49
2022/09/01 00:12:00;;;;;;;4.13;3.90;;;15.10;99.90;;;;;;5050950;28;20225;-49
2022/09/01 00:14:30;;;;;;;4.87;4.57;;;15.10;99.90;;;;;;5052743;28;20279;-49
2022/09/01 00:16:58;;;;;;;4.57;4.30;;;15.10;99.90;;;;;;5051280;28;20664;-49
2022/09/01 00:19:25;;;;;;;4.63;4.33;;;15.00;99.90;;;;;;5052064;28;20660;-47
2022/09/01 00:21:52;;;;;;;4.03;3.83;;;15.20;99.90;;;;;;5052656;28;20606;-49
2022/09/01 00:24:21;;;;;;;5.00;4.80;;;15.10;99.90;;;;;;5051339;28;20237;-48
2022/09/01 00:26:48;;;;;;;4.67;4.43;;;15.00;99.90;;;;;;5050307;28;20230;-49
2022/09/01 00:29:16;;;;;;;5.10;4.80;;;15.00;99.90;;;;;;5052615;28;20556;-48
2022/09/01 00:31:43;;;;;;;4.63;4.43;;;15.00;99.90;;;;;;5050827;28;20229;-49
2022/09/01 00:34:10;;;;;;;3.87;3.57;;;15.10;99.90;;;;;;5045268;28;20722;-49
2022/09/01 00:36:37;;;;;;;4.53;4.33;;;15.00;99.90;;;;;;5052754;28;20222;-48
2022/09/01 00:39:06;;;;;;;4.33;4.07;;;14.90;99.90;;;;;;5049678;28;20279;-49
2022/09/01 00:41:38;;;;;;;3.90;3.70;;;14.90;99.90;;;;;;5052450;28;20200;-48
2022/09/01 00:44:08;;;;;;;5.00;4.70;;;14.90;99.90;;;;;;5046659;28;20611;-48
2022/09/01 00:46:38;;;;;;;5.03;4.80;;;14.90;99.90;;;;;;5048558;28;20739;-49
2022/09/01 00:49:11;;;;;;;4.13;4.03;;;14.90;99.90;;;;;;5049106;28;20240;-48
2022/09/01 00:51:40;;;;;;;4.53;4.33;;;14.90;99.90;;;;;;5050317;28;20259;-50
2022/09/01 00:54:12;;;;;;;4.87;4.57;;;14.90;99.90;;;;;;5051946;28;20213;-48
2022/09/01 00:56:42;;;;;;;4.30;4.10;;;14.90;99.90;;;;;;5050908;28;20275;-49
2022/09/01 00:59:11;;;;;;;4.90;4.60;;;14.80;99.90;;;;;;5051043;28;20252;-49
2022/09/01 01:01:39;;;;;;;4.63;4.30;;;14.80;99.90;;;;;;5052047;28;20681;-48
2022/09/01 01:04:13;;;;;;;4.97;4.77;;;14.80;99.90;;;;;;5050745;28;20256;-48
2022/09/01 01:06:42;;;;;;;5.27;5.03;;;14.80;99.90;;;;;;5051995;28;20221;-49
2022/09/01 01:09:10;;;;;;;4.83;4.63;;;14.70;99.90;;;;;;5042368;28;20209;-48
2022/09/01 01:11:37;;;;;;;4.83;4.43;;;14.70;99.90;;;;;;5042949;28;20206;-49
2022/09/01 01:14:10;;;;;;;4.77;4.57;;;14.70;99.90;;;;;;5046469;28;20313;-49
2022/09/01 01:16:42;;;;;;;9.93;4.37;;;14.80;99.90;;;;;;5048496;28;20874;-50
2022/09/01 01:23:00;;;;;;;6.63;4.73;;;14.70;99.90;;;;;;5041976;28;20201;-50
2022/09/01 01:25:00;;;;;;;5.20;5.00;;;14.70;99.90;;;;;;5044883;28;20209;-49
2022/09/01 01:27:32;;;;;;;4.60;4.30;;;14.70;99.90;;;;;;5049505;28;20597;-49
2022/09/01 01:30:01;;;;;;;4.57;4.37;;;14.70;99.90;;;;;;5050461;28;20581;-48
2022/09/01 01:32:29;;;;;;;4.77;4.57;;;14.70;99.90;;;;;;5049633;28;20283;-49
2022/09/01 01:34:56;;;;;;;4.70;4.50;;;14.60;99.90;;;;;;5051322;28;20690;-49
2022/09/01 01:37:24;;;;;;;4.73;4.53;;;14.60;99.90;;;;;;5049999;28;20648;-49
2022/09/01 01:39:52;;;;;;;5.40;4.87;;;14.60;99.90;;;;;;5049803;28;20197;-49
2022/09/01 01:42:22;;;;;;;4.80;4.60;;;14.60;99.90;;;;;;5049263;28;20206;-48
2022/09/01 01:44:49;;;;;;;4.90;4.27;;;14.50;99.90;;;;;;5050973;28;20194;-50
2022/09/01 01:47:16;;;;;;;5.07;4.80;;;14.50;99.90;;;;;;5050370;28;20287;-49
2022/09/01 01:49:44;;;;;;;4.37;4.17;;;14.50;99.90;;;;;;5040148;28;20237;-48
2022/09/01 01:52:15;;;;;;;4.80;4.50;;;14.60;99.90;;;;;;5050594;28;20660;-47
2022/09/01 01:54:42;;;;;;;5.00;4.70;;;14.60;99.90;;;;;;5050356;28;20225;-49
2022/09/01 01:57:09;;;;;;;4.30;4.10;;;14.70;99.90;;;;;;5045646;28;20230;-48
2022/09/01 01:59:39;;;;;;;3.90;3.73;;;14.70;99.90;;;;;;5051386;28;20300;-48
2022/09/01 02:02:08;;;;;;;4.53;4.23;;;14.80;99.90;;;;;;5050419;28;20642;-49
2022/09/01 02:04:36;;;;;;;4.53;4.33;;;14.80;99.90;;;;;;5048549;28;20280;-49
2022/09/01 02:07:03;;;;;;;6.13;5.83;;;14.80;99.90;;;;;;5050632;28;20279;-48
2022/09/01 02:09:30;;;;;;;6.47;5.97;;;14.90;99.90;;;;;;5051166;28;20245;-49
2022/09/01 02:11:57;;;;;;;5.90;5.60;;;14.90;99.90;;;;;;5051122;28;20263;-49
2022/09/01 02:14:25;;;;;;;6.80;6.27;;;14.90;99.90;;;;;;5049890;28;20217;-49
2022/09/01 02:16:54;;;;;;;7.53;6.93;;;15.00;99.90;;;;;;5048883;28;20248;-49
2022/09/01 02:19:21;;;;;;;6.90;6.30;;;15.00;99.90;;;;;;5048768;28;20202;-48
2022/09/01 02:21:53;;;;;;;6.47;6.07;;;15.00;99.90;;;;;;5050975;28;20225;-49
2022/09/01 02:24:20;;;;;;;5.83;5.33;;;15.00;99.90;;;;;;5048650;28;20231;-49
2022/09/01 02:26:47;;;;;;;6.50;6.10;;;15.10;99.90;;;;;;5040709;28;20226;-49
2022/09/01 02:29:19;;;;;;;5.73;5.43;;;15.10;99.90;;;;;;5050741;28;20202;-48
2022/09/01 02:31:49;;;;;;;7.33;6.93;;;15.10;99.90;;;;;;5048277;28;20208;-48
2022/09/01 02:34:17;;;;;;;5.47;5.27;;;15.10;99.90;;;;;;5054279;28;20270;-47
2022/09/01 02:36:48;;;;;;;5.77;5.47;;;15.20;99.90;;;;;;5054598;28;20781;-50
2022/09/01 02:39:15;;;;;;;6.33;5.73;;;15.20;99.90;;;;;;5053615;28;20197;-48
2022/09/01 02:41:43;;;;;;;6.63;6.00;;;15.20;99.90;;;;;;5053540;28;20288;-49
2022/09/01 02:44:11;;;;;;;6.27;5.87;;;15.30;99.90;;;;;;5049161;28;20205;-48
2022/09/01 02:50:02;;;;;;;6.70;6.07;;;15.40;99.90;;;;;;5054596;28;20740;-48
2022/09/01 02:52:36;;;;;;;6.43;5.93;;;15.40;99.90;;;;;;5048750;28;20194;-49
2022/09/01 02:55:03;;;;;;;7.37;6.77;;;15.40;99.90;;;;;;5052101;28;20234;-49
2022/09/01 02:57:33;;;;;;;7.43;6.97;;;15.40;99.90;;;;;;5054094;28;20317;-48
2022/09/01 03:00:00;;;;;;;6.80;6.40;;;15.40;99.90;;;;;;5054371;28;20193;-49
2022/09/01 03:02:27;;;;;;;7.30;6.80;;;15.40;99.90;;;;;;5046300;28;20249;-49
2022/09/01 03:04:56;;;;;;;7.27;6.67;;;15.40;99.90;;;;;;5053124;28;20226;-50
2022/09/01 03:07:24;;;;;;;11.40;7.20;;;15.40;99.90;;;;;;5051607;28;20252;-50
2022/09/01 03:09:52;;;;;;;6.90;6.23;;;15.40;99.90;;;;;;5053710;28;20686;-49
2022/09/01 03:12:18;;;;;;;6.60;6.10;;;15.50;99.90;;;;;;5047618;28;20771;-48
2022/09/01 03:14:46;;;;;;;6.93;6.50;;;15.50;99.90;;;;;;5051455;28;20309;-48
2022/09/01 03:17:12;;;;;;;7.80;7.20;;;15.50;99.90;;;;;;5052652;28;20276;-49
2022/09/01 03:19:41;;;;;;;8.70;7.90;;;15.50;99.90;;;;;;5053119;28;20259;-48
2022/09/01 03:22:08;;;;;;;6.93;6.53;;;15.50;99.90;;;;;;5050669;28;20201;-49
2022/09/01 03:24:37;;;;;;;8.10;7.37;;;15.50;99.90;;;;;;5053335;28;20194;-48
2022/09/01 03:27:05;;;;;;;7.30;6.70;;;15.60;99.90;;;;;;5049096;28;20222;-50
2022/09/01 03:29:32;;;;;;;7.60;7.10;;;15.60;99.90;;;;;;5049004;28;20256;-48
2022/09/01 03:31:58;;;;;;;8.37;7.57;;;15.60;99.90;;;;;;5052154;28;20198;-49
2022/09/01 03:34:25;;;;;;;6.57;6.17;;;15.50;99.90;;;;;;5052332;28;20217;-48
2022/09/01 03:36:53;;;;;;;9.10;8.50;;;15.50;99.90;;;;;;5053286;28;20217;-50
2022/09/01 03:39:20;;;;;;;7.13;6.63;;;15.50;99.90;;;;;;5053408;28;20205;-48
2022/09/01 03:41:48;;;;;;;9.83;8.90;;;15.50;99.90;;;;;;5049708;28;20213;-49
2022/09/01 03:44:15;;;;;;;9.97;8.90;;;15.50;99.90;;;;;;5053192;28;20199;-49
2022/09/01 03:46:43;;;;;;;11.00;9.37;;;15.50;99.90;;;;;;5050489;28;20222;-49
2022/09/01 03:49:14;;;;;;;9.60;8.80;;;15.50;99.90;;;;;;5046310;28;20751;-49
2022/09/01 03:51:43;;;;;;;10.87;9.87;;;15.50;99.90;;;;;;5051681;28;20320;-49
2022/09/01 03:54:10;;;;;;;9.30;8.50;;;15.50;99.90;;;;;;5046187;28;20232;-48
2022/09/01 03:56:40;;;;;;;8.83;8.20;;;15.50;99.90;;;;;;5044134;28;20314;-50
2022/09/01 03:59:15;;;;;;;9.47;8.70;;;15.50;99.90;;;;;;5052197;28;20214;-49
2022/09/01 04:01:43;;;;;;;10.30;9.50;;;15.50;99.90;;;;;;5052184;28;20197;-48
2022/09/01 04:04:12;;;;;;;8.77;8.07;;;15.50;99.90;;;;;;5044697;28;20206;-48
2022/09/01 04:06:40;;;;;;;9.63;8.93;;;15.50;99.90;;;;;;5043941;28;20218;-48
2022/09/01 04:09:07;;;;;;;9.57;8.73;;;15.40;99.90;;;;;;5048457;28;20202;-49
2022/09/01 04:11:35;;;;;;;10.10;9.30;;;15.40;99.90;;;;;;5046945;28;20202;-48
2022/09/01 04:14:02;;;;;;;8.27;7.67;;;15.40;99.90;;;;;;5052320;28;20276;-49
2022/09/01 04:19:24;;;;;;;9.13;8.43;;;15.40;99.90;;;;;;5045486;28;20206;-48
2022/09/01 04:21:53;;;;;;;8.93;8.23;;;15.40;99.90;;;;;;5050425;28;20231;-49
2022/09/01 04:24:22;;;;;;;8.60;8.00;;;15.40;99.90;;;;;;5043972;28;20215;-49
2022/09/01 04:26:51;;;;;;;9.13;8.43;;;15.30;99.90;;;;;;5052287;28;20240;-49
2022/09/01 04:29:22;;;;;;;8.43;7.73;;;15.40;99.90;;;;;;5052617;28;20241;-49
2022/09/01 04:31:50;;;;;;;9.13;8.53;;;15.40;99.90;;;;;;5043041;28;20582;-48
2022/09/01 04:34:18;;;;;;;9.60;8.73;;;15.30;99.90;;;;;;5043165;28;20226;-48
2022/09/01 04:36:45;;;;;;;9.23;8.63;;;15.30;99.90;;;;;;5050320;28;20220;-50
2022/09/01 04:39:12;;;;;;;8.50;7.80;;;15.30;99.90;;;;;;5052471;28;20210;-49
2022/09/01 04:41:42;;;;;;;8.40;7.70;;;15.30;99.90;;;;;;5043069;28;20281;-48
2022/09/01 04:44:09;;;;;;;8.90;8.23;;;15.40;99.90;;;;;;5052127;28;20602;-49
2022/09/01 04:46:41;;;;;;;8.23;7.77;;;15.50;99.90;;;;;;5042758;28;20226;-48
2022/09/01 04:49:10;;;;;;;8.97;8.13;;;15.50;99.90;;;;;;5050570;28;20206;-48
2022/09/01 04:51:39;;;;;;;8.50;8.00;;;15.50;99.90;;;;;;5051024;28;20285;-49
2022/09/01 04:54:13;;;;;;;8.50;7.93;;;15.50;99.90;;;;;;5051086;28;20729;-48
2022/09/01 04:56:41;;;;;;;9.43;8.80;;;15.50;99.90;;;;;;5047045;28;20225;-49
2022/09/01 04:59:09;;;;;;;8.80;8.20;;;15.50;99.90;;;;;;5051351;28;20675;-49
2022/09/01 05:01:42;;;;;;;10.20;9.40;;;15.50;99.90;;;;;;5048737;28;20276;-48
2022/09/01 05:04:13;;;;;;;9.23;8.53;;;15.60;99.90;;;;;;5051697;28;20291;-49
2022/09/01 05:06:41;;;;;;;9.27;8.37;;;15.50;99.90;;;;;;5051891;28;20221;-48
2022/09/01 05:09:10;;;;;;;9.97;9.20;;;15.50;99.90;;;;;;5051918;28;20206;-48
2022/09/01 05:11:38;;;;;;;9.77;8.97;;;15.50;99.90;;;;;;5049408;28;20237;-48
2022/09/01 05:14:05;;;;;;;9.00;8.30;;;15.50;99.90;;;;;;5048436;28;20220;-49
2022/09/01 05:16:34;;;;;;;9.83;9.10;;;15.50;99.90;;;;;;5051333;28;20711;-49
2022/09/01 05:19:02;;;;;;;8.10;7.50;;;15.50;99.90;;;;;;5051630;28;20229;-49
2022/09/01 05:21:30;;;;;;;9.73;8.93;;;15.50;99.90;;;;;;5047002;28;20263;-49
2022/09/01 05:24:00;;;;;;;7.77;7.17;;;15.50;99.90;;;;;;5050880;28;20229;-49
2022/09/01 05:26:29;;;;;;;10.47;8.60;;;15.50;99.90;;;;;;5044998;28;20218;-48
2022/09/01 05:28:59;;;;;;;7.60;7.10;;;15.50;99.90;;;;;;5052723;28;20206;-49
2022/09/01 05:31:36;;;;;;;8.93;8.33;;;15.50;99.90;;;;;;5050337;28;20248;-49
2022/09/01 05:34:04;;;;;;;8.87;8.07;;;15.50;99.90;;;;;;5051314;28;20201;-49
2022/09/01 05:36:32;;;;;;;8.37;7.77;;;15.50;99.90;;;;;;5047085;28;20245;-48
2022/09/01 05:39:00;;;;;;;8.40;7.70;;;15.50;99.90;;;;;;5050671;28;20293;-50
2022/09/01 05:41:27;;;;;;;8.67;7.90;;;15.60;99.90;;;;;;5047986;28;20197;-50
2022/09/01 05:43:55;;;;;;;8.70;8.00;;;15.60;99.90;;;;;;5047801;28;20198;-50
2022/09/01 05:46:25;;;;;;;9.37;8.67;;;15.70;99.90;;;;;;5050404;28;20778;-48
2022/09/01 05:48:53;;;;;;;8.80;8.10;;;15.70;99.90;;;;;;5050269;28;20331;-49
2022/09/01 05:51:22;;;;;;;9.47;8.73;;;15.70;99.90;;;;;;5053294;28;20236;-49
2022/09/01 05:53:55;;;;;;;7.60;7.10;;;15.70;99.90;;;;;;5050185;28;20707;-49
2022/09/01 05:56:22;;;;;;;9.13;8.40;;;15.80;99.90;;;;;;5050581;28;20735;-48
2022/09/01 05:58:50;;;;;;;8.17;7.57;;;15.80;99.90;;;;;;5048263;28;20202;-48
2022/09/01 06:01:21;;;;;;;8.50;7.97;;;15.90;99.90;;;;;;5049089;28;20287;-48
2022/09/01 06:03:51;;;;;;;9.90;9.20;;;16.00;99.90;;;;;;5038847;28;20202;-48
2022/09/01 06:06:19;;;;;;;12.97;10.10;;;16.10;99.90;;;;;;5053976;28;20222;-49
2022/09/01 06:08:49;;;;;;;10.90;10.00;;;16.10;99.90;;;;;;5053592;28;20305;-49
2022/09/01 06:11:18;;;;;;;10.20;9.30;;;16.10;99.90;;;;;;5053913;28;20743;-49
2022/09/01 06:13:46;;;;;;;10.47;9.63;;;16.10;99.90;;;;;;5052502;28;20344;-48
2022/09/01 06:16:14;;;;;;;9.13;8.53;;;16.10;99.90;;;;;;5051466;28;20221;-49
2022/09/01 06:18:42;;;;;;;10.53;9.40;;;16.10;99.90;;;;;;5054796;28;20288;-48
2022/09/01 06:21:13;;;;;;;9.47;8.73;;;16.20;99.90;;;;;;5053872;28;20248;-49
2022/09/01 06:23:41;;;;;;;9.07;8.37;;;16.20;99.90;;;;;;5050963;28;20207;-49
2022/09/01 06:26:16;;;;;;;10.50;9.43;;;16.30;99.90;;;;;;5049524;28;20751;-49
2022/09/01 06:28:44;;;;;;;9.57;8.87;;;16.40;99.90;;;;;;5051407;28;20544;-48
2022/09/01 06:31:12;;;;;;;11.90;9.13;;;16.40;99.90;;;;;;5048481;28;20206;-48
2022/09/01 06:33:39;;;;;;;10.63;9.67;;;16.40;99.90;;;;;;5050709;28;20208;-49
2022/09/01 06:36:08;;;;;;;9.83;9.03;;;16.50;99.90;;;;;;5053354;28;20221;-48
2022/09/01 06:38:36;;;;;;;10.40;9.40;;;16.60;99.90;;;;;;5054579;28;20224;-49
2022/09/01 06:41:09;;;;;;;10.50;9.60;;;16.60;99.90;;;;;;5053326;28;20643;-49
2022/09/01 06:43:38;;;;;;;8.90;8.40;;;16.60;99.90;;;;;;5050725;28;20197;-48
2022/09/01 06:46:08;;;;;;;9.17;8.57;;;16.60;99.90;;;;;;5054548;28;20217;-48
2022/09/01 06:48:35;;;;;;;8.93;8.30;;;16.70;99.90;;;;;;5054083;28;20209;-49
2022/09/01 06:51:03;;;;;;;9.43;8.73;;;16.80;99.90;;;;;;5054420;28;20206;-47
2022/09/01 06:53:30;;;;;;;9.07;8.17;;;16.90;99.90;;;;;;5045204;28;20205;-49
2022/09/01 06:55:58;;;;;;;9.00;8.40;;;17.00;99.90;;;;;;5053868;28;20222;-49
2022/09/01 06:58:25;;;;;;;8.10;7.43;;;17.10;99.90;;;;;;5065362;28;20201;-49
2022/09/01 07:00:52;;;;;;;8.30;7.70;;;17.30;99.90;;;;;;5074410;28;20236;-49
2022/09/01 07:03:21;;;;;;;9.37;8.60;;;17.30;99.90;;;;;;5046098;28;20305;-49
2022/09/01 07:05:50;;;;;;;8.83;8.07;;;17.40;99.90;;;;;;5053827;28;20257;-48
2022/09/01 07:08:20;;;;;;;7.97;7.43;;;17.60;99.90;;;;;;5054195;28;20251;-48
2022/09/01 07:10:50;;;;;;;9.07;8.17;;;17.70;99.90;;;;;;5054233;28;20208;-48
2022/09/01 07:13:22;;;;;;;8.83;8.23;;;17.80;99.90;;;;;;5044426;28;20259;-48
2022/09/01 07:15:51;;;;;;;8.93;8.27;;;17.90;99.90;;;;;;5052646;28;20283;-48
2022/09/01 07:18:21;;;;;;;9.50;8.70;;;18.00;99.90;;;;;;5051250;28;20741;-49
2022/09/01 07:20:50;;;;;;;7.67;7.17;;;18.10;99.90;;;;;;5049575;28;20201;-49
2022/09/01 07:23:18;;;;;;;9.50;8.80;;;18.30;99.90;;;;;;5052153;28;20284;-48
2022/09/01 07:25:48;;;;;;;8.30;7.60;;;18.40;99.90;;;;;;5051106;28;20675;-50
2022/09/01 07:28:17;;;;;;;8.90;8.20;;;18.50;99.90;;;;;;5047459;28;20198;-50
2022/09/01 07:30:47;;;;;;;7.47;6.80;;;18.70;99.90;;;;;;5050545;28;20212;-49
2022/09/01 07:33:15;;;;;;;8.57;8.03;;;18.70;99.90;;;;;;5050302;28;20578;-49
2022/09/01 07:35:43;;;;;;;9.73;9.00;;;18.70;99.90;;;;;;5049731;28;20226;-49
2022/09/01 07:38:12;;;;;;;8.27;7.57;;;18.80;99.90;;;;;;5045540;28;20294;-49
2022/09/01 07:40:40;;;;;;;7.53;7.03;;;18.90;99.90;;;;;;5048232;28;20581;-48
2022/09/01 07:43:21;;;;;;;7.97;7.47;;;18.80;99.90;;;;;;5052244;28;20233;-48
2022/09/01 07:45:49;;;;;;;9.57;8.83;;;18.80;99.90;;;;;;5050314;28;20214;-49
2022/09/01 07:48:19;;;;;;;9.97;8.97;;;18.90;99.90;;;;;;5051098;28;20233;-49
2022/09/01 07:50:51;;;;;;;8.50;7.70;;;19.00;99.90;;;;;;5052641;28;20284;-49
2022/09/01 07:53:21;;;;;;;9.20;8.33;;;19.00;99.90;;;;;;5049211;28;20252;-50
2022/09/01 07:55:50;;;;;;;9.53;8.83;;;18.80;99.90;;;;;;5051657;28;20224;-48
2022/09/01 07:58:18;;;;;;;8.93;8.33;;;18.90;99.90;;;;;;5052984;28;20204;-48
2022/09/01 08:00:46;;;;;;;9.60;8.60;;;18.90;99.90;;;;;;5051687;28;20288;-49
2022/09/01 08:03:14;;;;;;;7.83;7.27;;;19.00;99.90;;;;;;5051286;28;20213;-49
2022/09/01 08:05:42;;;;;;;8.40;7.80;;;19.10;99.90;;;;;;5049411;28;20628;-49
2022/09/01 08:08:10;;;;;;;12.53;8.63;;;19.20;99.90;;;;;;5052804;28;20695;-49
2022/09/01 08:10:39;;;;;;;9.07;8.37;;;19.40;99.90;;;;;;5050470;28;20201;-48
2022/09/01 08:13:06;;;;;;;8.50;7.80;;;19.50;99.90;;;;;;5051388;28;20205;-48
2022/09/01 08:15:33;;;;;;;7.83;7.23;;;19.70;99.90;;;;;;5050130;28;20218;-49
2022/09/01 08:18:00;;;;;;;8.33;7.83;;;19.70;99.90;;;;;;5051662;28;20209;-48
2022/09/01 08:20:27;;;;;;;9.53;8.73;;;19.70;99.90;;;;;;5051679;28;20202;-48
2022/09/01 08:22:54;;;;;;;8.17;7.63;;;19.70;99.90;;;;;;5048739;28;20206;-49
2022/09/01 08:25:22;;;;;;;8.00;7.50;;;19.70;99.90;;;;;;5050481;28;20193;-49
2022/09/01 08:27:49;;;;;;;9.33;8.57;;;19.80;99.90;;;;;;5049588;28;20654;-50
2022/09/01 08:30:16;;;;;;;8.30;7.70;;;20.00;99.90;;;;;;5047747;28;20209;-48
2022/09/01 08:32:43;;;;;;;7.40;6.87;;;20.10;99.90;;;;;;5050517;28;20279;-48
2022/09/01 08:35:12;;;;;;;8.77;8.13;;;20.30;99.90;;;;;;5049972;28;20312;-50
2022/09/01 08:37:39;;;;;;;7.83;7.27;;;20.30;99.90;;;;;;5050935;28;20221;-49
2022/09/01 08:40:08;;;;;;;7.50;7.10;;;20.40;99.90;;;;;;5050527;28;20305;-49
2022/09/01 08:42:50;;;;;;;7.17;6.73;;;20.50;99.90;;;;;;5045535;28;20202;-49
2022/09/01 08:45:23;;;;;;;7.00;6.60;;;20.60;99.90;;;;;;5045758;28;20566;-48
2022/09/01 08:47:54;;;;;;;7.67;7.17;;;20.90;99.90;;;;;;5050232;28;20717;-48
2022/09/01 08:50:21;;;;;;;6.43;6.03;;;21.10;99.90;;;;;;5050369;28;20558;-49
2022/09/01 08:52:57;;;;;;;7.03;6.53;;;21.20;99.90;;;;;;5049807;28;20737;-49
2022/09/01 08:55:30;;;;;;;8.10;7.50;;;21.50;99.90;;;;;;5050087;28;20217;-47
2022/09/01 08:58:03;;;;;;;5.53;5.23;;;21.60;99.90;;;;;;5053309;28;20222;-48
2022/09/01 09:00:38;;;;;;;6.83;6.47;;;21.50;99.90;;;;;;5049840;28;20205;-48
2022/09/01 09:03:19;;;;;;;6.67;6.27;;;21.80;99.90;;;;;;5050134;28;20407;-49
2022/09/01 09:06:02;;;;;;;6.27;5.93;;;21.60;99.90;;;;;;5049885;28;20587;-49
2022/09/01 09:08:53;;;;;;;5.70;5.33;;;21.70;99.90;;;;;;5050617;28;20205;-48
2022/09/01 09:11:54;;;;;;;8.27;7.67;;;21.80;99.90;;;;;;5049691;28;20202;-48
2022/09/01 09:14:37;;;;;;;6.60;6.17;;;21.30;99.90;;;;;;5049179;28;20205;-48
2022/09/01 09:17:05;;;;;;;6.07;5.63;;;21.20;99.90;;;;;;5046294;28;20225;-48
2022/09/01 09:19:35;;;;;;;5.87;5.47;;;21.50;99.90;;;;;;5049405;28;20236;-48
2022/09/01 09:22:09;;;;;;;4.70;4.50;;;21.80;99.90;;;;;;5048303;28;20284;-49
2022/09/01 09:24:49;;;;;;;6.13;5.57;;;22.20;99.90;;;;;;5046415;28;20334;-48
2022/09/01 09:27:19;;;;;;;5.80;5.43;;;22.50;99.90;;;;;;5049936;28;20319;-48
2022/09/01 09:29:51;;;;;;;5.40;5.10;;;22.50;99.90;;;;;;5050154;28;20276;-49
2022/09/01 09:32:19;;;;;;;4.37;4.17;;;22.40;99.90;;;;;;5049679;28;20201;-49
2022/09/01 09:34:46;;;;;;;4.53;4.33;;;22.30;99.90;;;;;;5049795;28;20193;-49
2022/09/01 09:37:24;;;;;;;3.60;3.30;;;23.30;99.90;;;;;;5049669;28;20229;-50
2022/09/01 09:40:13;;;;;;;3.43;3.33;;;24.30;99.90;;;;;;5049851;28;20205;-49
2022/09/01 09:42:43;;;;;;;3.60;3.40;;;25.80;99.90;;;;;;5048263;28;20267;-49
2022/09/01 09:45:24;;;;;;;3.63;3.53;;;26.40;99.90;;;;;;5049451;28;20198;-49
2022/09/01 09:47:52;;;;;;;3.50;3.20;;;26.00;99.90;;;;;;5048452;28;20292;-50
2022/09/01 09:50:24;;;;;;;3.63;3.53;;;25.60;99.90;;;;;;5049069;28;20197;-48
2022/09/01 09:53:12;;;;;;;4.30;4.10;;;25.10;99.90;;;;;;5045931;28;20209;-49
2022/09/01 09:55:53;;;;;;;4.33;4.03;;;24.60;99.90;;;;;;5049232;28;20653;-48
2022/09/01 09:58:25;;;;;;;4.30;3.73;;;23.90;99.90;;;;;;5049043;28;20625;-48
2022/09/01 10:01:27;;;;;;;3.30;3.10;;;23.80;99.90;;;;;;5048946;28;20263;-49
2022/09/01 10:03:56;;;;;;;4.33;4.13;;;23.70;99.90;;;;;;5049142;28;20342;-49
2022/09/01 10:06:35;;;;;;;5.00;3.90;;;23.40;99.90;;;;;;5049426;28;20213;-49
2022/09/01 10:09:04;;;;;;;3.53;3.43;;;23.20;99.90;;;;;;5049454;28;20198;-49
2022/09/01 10:11:37;;;;;;;3.70;3.60;;;23.20;99.90;;;;;;5048645;28;20278;-49
2022/09/01 10:14:09;;;;;;;4.60;4.40;;;23.30;99.90;;;;;;5046384;28;20201;-48
2022/09/01 10:16:41;;;;;;;4.67;4.50;;;23.80;99.90;;;;;;5046494;28;20222;-49
2022/09/01 10:19:12;;;;;;;5.67;5.37;;;23.60;99.90;;;;;;5049710;28;20194;-49
2022/09/01 10:21:42;;;;;;;5.43;5.23;;;23.10;99.90;;;;;;5049201;28;20198;-48
2022/09/01 10:24:18;;;;;;;5.20;4.90;;;22.90;99.90;;;;;;5048267;28;20205;-48
2022/09/01 10:26:50;;;;;;;5.43;5.23;;;22.70;99.90;;;;;;5049343;28;20209;-48
2022/09/01 10:29:25;;;;;;;6.77;6.37;;;22.30;99.90;;;;;;5049465;28;20675;-48
2022/09/01 10:31:56;;;;;;;6.53;6.13;;;22.60;99.90;;;;;;5047939;28;20655;-49
2022/09/01 10:34:24;;;;;;;4.80;4.50;;;22.80;99.90;;;;;;5048955;28;20244;-49
2022/09/01 10:36:51;;;;;;;3.90;3.70;;;23.40;99.90;;;;;;5048357;28;20217;-48
2022/09/01 10:39:19;;;;;;;3.43;3.33;;;24.20;99.90;;;;;;5049663;28;20721;-48
2022/09/01 10:41:53;;;;;;;3.67;3.57;;;25.40;99.90;;;;;;5048143;28;20581;-48
2022/09/01 10:44:23;;;;;;;3.70;3.50;;;26.00;99.90;;;;;;5047891;28;20281;-48
2022/09/01 10:46:51;;;;;;;2.93;2.83;;;25.30;99.90;;;;;;5049014;28;20209;-48
2022/09/01 10:49:42;;;;;;;3.10;2.90;;;25.00;99.90;;;;;;5047294;28;20233;-49
2022/09/01 10:52:09;;;;;;;2.27;2.17;;;25.00;99.90;;;;;;5049149;28;20201;-49
2022/09/01 10:55:01;;;;;;;1.77;1.77;;;24.60;99.90;;;;;;5052467;28;20198;-48
2022/09/01 10:57:51;;;;;;;2.40;2.30;;;24.10;99.90;;;;;;5038581;28;20280;-48
2022/09/01 11:00:47;;;;;;;2.20;2.10;;;23.70;99.90;;;;;;5050688;28;20636;-49
2022/09/01 11:03:52;;;;;;;2.80;2.40;;;23.40;99.90;;;;;;5053217;28;20327;-49
2022/09/01 11:06:57;;;;;;;2.20;2.20;;;23.00;99.90;;;;;;5027359;28;20213;-49
2022/09/01 11:09:28;;;;;;;3.83;3.60;;;23.30;99.90;;;;;;5027622;28;20319;-48
2022/09/01 11:12:43;;;;;;;4.73;2.97;;;23.00;99.90;;;;;;5041521;28;20252;-49
2022/09/01 11:15:34;;;;;;;3.13;3.00;;;23.10;99.90;;;;;;5049654;28;20194;-51
2022/09/01 11:18:02;;;;;;;2.70;2.50;;;23.50;99.90;;;;;;5053340;28;20225;-49
2022/09/01 11:20:33;;;;;;;2.70;2.60;;;23.60;99.90;;;;;;5053322;28;20194;-49
2022/09/01 11:23:04;;;;;;;3.70;3.50;;;23.80;99.90;;;;;;5051816;28;20259;-47
2022/09/01 11:25:35;;;;;;;2.90;2.80;;;23.70;99.90;;;;;;5053340;28;20193;-48
2022/09/01 11:28:36;;;;;;;2.83;2.73;;;23.10;99.90;;;;;;5049452;28;20208;-48
2022/09/01 11:31:18;;;;;;;3.00;2.90;;;22.60;99.90;;;;;;5052197;28;20636;-49
2022/09/01 11:33:52;;;;;;;3.13;3.00;;;22.70;99.90;;;;;;5053128;28;20252;-49
2022/09/01 11:36:28;;;;;;;3.17;3.07;;;22.70;99.90;;;;;;5049593;28;20300;-50
2022/09/01 11:39:05;;;;;;;3.43;3.13;;;22.70;99.90;;;;;;5049746;28;20201;-49
2022/09/01 11:41:41;;;;;;;2.73;2.60;;;23.00;99.90;;;;;;5048691;28;20288;-50
2022/09/01 11:44:13;;;;;;;3.10;3.00;;;22.90;99.90;;;;;;5050864;28;20202;-49
2022/09/01 11:46:42;;;;;;;3.00;2.90;;;22.80;99.90;;;;;;5053363;28;20218;-49
2022/09/01 11:49:25;;;;;;;2.47;2.43;;;22.90;99.90;;;;;;5052681;28;20218;-49
2022/09/01 11:51:52;;;;;;;3.23;3.13;;;23.00;99.90;;;;;;5051196;28;20605;-48
2022/09/01 11:54:21;;;;;;;2.53;2.43;;;23.00;99.90;;;;;;5052040;28;20683;-48
2022/09/01 11:56:47;;;;;;;2.70;2.50;;;23.10;99.90;;;;;;5053909;28;20254;-48
2022/09/01 11:59:15;;;;;;;3.53;3.37;;;23.20;99.90;;;;;;5052565;28;20198;-49
2022/09/01 12:01:42;;;;;;;3.07;2.97;;;23.10;99.90;;;;;;5051760;28;20225;-49
2022/09/01 12:04:22;;;;;;;2.83;2.83;;;23.10;99.90;;;;;;5052322;28;20205;-48
2022/09/01 12:06:55;;;;;;;2.93;2.83;;;23.10;99.90;;;;;;5052242;28;20216;-49
2022/09/01 12:09:33;;;;;;;2.77;2.57;;;23.00;99.90;;;;;;5052658;28;20198;-48
2022/09/01 12:12:00;;;;;;;5.00;2.77;;;23.00;99.90;;;;;;5048497;28;20210;-49
2022/09/01 12:14:27;;;;;;;3.00;2.80;;;22.90;99.90;;;;;;5045902;28;20660;-49
2022/09/01 12:17:01;;;;;;;3.23;3.03;;;22.70;99.90;;;;;;5051528;28;20268;-49
2022/09/01 12:19:30;;;;;;;2.50;2.40;;;22.50;99.90;;;;;;5052468;28;20202;-49
2022/09/01 12:22:01;;;;;;;3.80;2.77;;;22.50;99.90;;;;;;5051519;28;20230;-50
2022/09/01 12:24:33;;;;;;;2.80;2.80;;;22.70;99.90;;;;;;5051741;28;20200;-49
2022/09/01 12:27:01;;;;;;;2.80;2.70;;;22.80;99.90;;;;;;5051946;28;20241;-49
2022/09/01 12:29:30;;;;;;;2.40;2.30;;;23.00;99.90;;;;;;5051866;28;20267;-49
2022/09/01 12:31:59;;;;;;;2.77;2.77;;;23.10;99.90;;;;;;5047548;28;20205;-49
2022/09/01 12:34:35;;;;;;;3.10;2.90;;;22.70;99.90;;;;;;5051513;28;20256;-49
2022/09/01 12:37:05;;;;;;;2.60;2.40;;;22.90;99.90;;;;;;5051562;28;20694;-48
2022/09/01 12:39:36;;;;;;;2.70;2.50;;;23.00;99.90;;;;;;5051811;28;20247;-49
2022/09/01 12:42:10;;;;;;;2.93;2.80;;;23.10;99.90;;;;;;5050698;28;20640;-49
2022/09/01 12:44:49;;;;;;;2.33;2.30;;;23.20;99.90;;;;;;5046263;28;20201;-48
2022/09/01 12:47:58;;;;;;;2.30;2.30;;;23.30;99.90;;;;;;5051962;28;20209;-48
2022/09/01 12:50:44;;;;;;;2.90;2.80;;;23.50;99.90;;;;;;5009182;28;20246;-49
2022/09/01 12:53:19;;;;;;;3.10;3.10;;;23.60;99.90;;;;;;5045528;28;20197;-49
2022/09/01 12:55:59;;;;;;;3.30;3.00;;;23.50;99.90;;;;;;5051923;28;20221;-49
2022/09/01 12:58:28;;;;;;;3.00;2.90;;;23.60;99.90;;;;;;5063865;28;20804;-48
2022/09/01 13:00:58;;;;;;;2.43;2.33;;;23.30;99.90;;;;;;5071702;28;20201;-48
2022/09/01 13:03:26;;;;;;;3.30;3.20;;;23.20;99.90;;;;;;5042222;28;20293;-48
2022/09/01 13:05:55;;;;;;;3.00;2.90;;;23.00;99.90;;;;;;5049959;28;20562;-48
2022/09/01 13:08:25;;;;;;;2.67;2.60;;;22.80;99.90;;;;;;5048274;28;20197;-49
2022/09/01 13:10:55;;;;;;;3.00;2.90;;;22.80;99.90;;;;;;5050568;28;20198;-48
2022/09/01 13:13:25;;;;;;;2.90;2.90;;;22.80;99.90;;;;;;5043869;28;20236;-49
2022/09/01 13:15:54;;;;;;;2.93;2.83;;;22.80;99.90;;;;;;5050943;28;20295;-48